createdAt,value
2023-09-02T00:00:09.448Z,0.60
2023-09-02T00:02:44.725Z,0.40
2023-09-02T00:05:12.790Z,0.40
2023-09-02T00:07:40.957Z,0.60
2023-09-02T00:10:10.646Z,0.53
2023-09-02T00:12:38.730Z,0.40
2023-09-02T00:15:09.537Z,0.30
2023-09-02T00:17:37.902Z,0.40
2023-09-02T00:20:08.903Z,0.30
2023-09-02T00:22:36.947Z,0.30
2023-09-02T00:25:05.236Z,0.20
2023-09-02T00:27:33.385Z,0.30
2023-09-02T00:30:01.449Z,0.20
2023-09-02T00:32:31.174Z,0.27
2023-09-02T00:34:59.233Z,0.30
2023-09-02T00:37:27.405Z,0.23
2023-09-02T00:39:55.504Z,0.20
2023-09-02T00:42:26.196Z,0.30
2023-09-02T00:44:54.592Z,0.30
2023-09-02T00:47:22.975Z,0.30
2023-09-02T00:49:52.582Z,0.60
2023-09-02T00:52:20.863Z,0.20
2023-09-02T00:54:48.951Z,0.37
2023-09-02T00:57:17.151Z,0.40
2023-09-02T00:59:45.361Z,0.50
2023-09-02T01:02:14.610Z,0.60
2023-09-02T01:04:43.244Z,0.30
2023-09-02T01:07:13.089Z,0.50
2023-09-02T01:09:43.368Z,0.83
2023-09-02T01:12:11.583Z,0.70
2023-09-02T01:14:39.731Z,0.60
2023-09-02T01:17:07.862Z,0.50
2023-09-02T01:19:36.483Z,0.60
2023-09-02T01:22:22.303Z,0.37
2023-09-02T01:25:18.345Z,0.60
2023-09-02T01:27:53.993Z,0.50
2023-09-02T01:30:27.628Z,0.70
2023-09-02T01:32:57.473Z,0.73
2023-09-02T01:35:28.839Z,0.67
2023-09-02T01:37:58.761Z,0.63
2023-09-02T01:40:28.861Z,0.50
2023-09-02T01:43:00.377Z,0.40
2023-09-02T01:45:32.254Z,0.30
2023-09-02T01:48:01.365Z,0.50
2023-09-02T01:50:31.437Z,0.27
2023-09-02T01:53:00.511Z,0.27
2023-09-02T01:55:28.987Z,0.30
2023-09-02T01:57:59.070Z,0.30
2023-09-02T02:00:27.583Z,0.60
2023-09-02T02:02:56.695Z,0.57
2023-09-02T02:05:34.871Z,0.60
2023-09-02T02:08:11.915Z,0.40
2023-09-02T02:10:41.480Z,0.40
2023-09-02T02:13:10.997Z,0.40
2023-09-02T02:15:39.084Z,0.40
2023-09-02T02:18:07.258Z,0.50
2023-09-02T02:20:41.516Z,0.30
2023-09-02T02:23:10.647Z,0.43
2023-09-02T02:25:38.649Z,0.53
2023-09-02T02:28:07.648Z,0.33
2023-09-02T02:30:37.028Z,0.43
2023-09-02T02:33:05.714Z,0.30
2023-09-02T02:35:34.368Z,0.33
2023-09-02T02:38:02.447Z,0.40
2023-09-02T02:40:30.447Z,0.50
2023-09-02T02:42:58.571Z,0.40
2023-09-02T02:45:26.699Z,0.60
2023-09-02T02:47:56.111Z,0.50
2023-09-02T02:50:24.262Z,0.30
2023-09-02T02:52:52.859Z,0.40
2023-09-02T02:55:20.942Z,0.93
2023-09-02T02:57:49.890Z,0.40
2023-09-02T03:00:18.591Z,0.30
2023-09-02T03:02:46.824Z,0.40
2023-09-02T03:05:16.488Z,0.60
2023-09-02T03:07:44.542Z,0.50
2023-09-02T03:10:12.908Z,0.40
2023-09-02T03:12:41.209Z,0.30
2023-09-02T03:15:10.591Z,0.30
2023-09-02T03:17:38.974Z,0.30
2023-09-02T03:20:09.736Z,0.30
2023-09-02T03:22:42.174Z,0.60
2023-09-02T03:25:10.890Z,0.30
2023-09-02T03:27:39.282Z,0.40
2023-09-02T03:30:09.196Z,0.47
2023-09-02T03:32:37.944Z,0.40
2023-09-02T03:35:08.876Z,0.50
2023-09-02T03:37:37.088Z,0.30
2023-09-02T03:40:08.433Z,0.40
2023-09-02T03:42:36.508Z,0.40
2023-09-02T03:45:04.896Z,0.90
2023-09-02T03:47:33.478Z,0.40
2023-09-02T03:50:04.661Z,0.50
2023-09-02T03:52:33.037Z,0.30
2023-09-02T03:55:01.131Z,0.40
2023-09-02T03:57:31.642Z,0.60
2023-09-02T04:00:00.844Z,0.40
2023-09-02T04:02:31.140Z,0.30
2023-09-02T04:04:59.236Z,0.60
2023-09-02T04:07:27.337Z,0.70
2023-09-02T04:09:56.199Z,0.40
2023-09-02T04:12:24.291Z,0.40
2023-09-02T04:14:53.700Z,0.40
2023-09-02T04:17:23.233Z,0.53
2023-09-02T04:19:51.630Z,0.70
2023-09-02T04:22:19.713Z,0.37
2023-09-02T04:24:47.756Z,0.40
2023-09-02T04:27:15.790Z,0.70
2023-09-02T04:29:43.799Z,0.60
2023-09-02T04:32:13.366Z,0.50
2023-09-02T04:34:41.983Z,0.50
2023-09-02T04:37:11.484Z,1.17
2023-09-02T04:39:41.346Z,0.90
2023-09-02T04:42:11.207Z,0.60
2023-09-02T04:44:40.890Z,0.63
2023-09-02T04:47:11.371Z,0.57
2023-09-02T04:49:40.839Z,0.53
2023-09-02T04:52:08.939Z,0.80
2023-09-02T04:54:37.034Z,0.63
2023-09-02T04:57:06.010Z,0.47
2023-09-02T04:59:34.187Z,0.40
2023-09-02T05:02:02.417Z,0.43
2023-09-02T05:04:30.746Z,0.50
2023-09-02T05:07:00.398Z,0.57
2023-09-02T05:09:30.244Z,0.50
2023-09-02T05:11:58.354Z,0.50
2023-09-02T05:14:27.353Z,0.40
2023-09-02T05:16:55.413Z,0.90
2023-09-02T05:19:24.043Z,0.50
2023-09-02T05:21:52.062Z,0.70
2023-09-02T05:24:21.434Z,1.07
2023-09-02T05:26:50.245Z,0.80
2023-09-02T05:29:18.425Z,0.90
2023-09-02T05:31:46.553Z,1.30
2023-09-02T05:34:14.619Z,0.97
2023-09-02T05:36:42.662Z,1.10
2023-09-02T05:39:11.700Z,0.70
2023-09-02T05:41:41.075Z,0.87
2023-09-02T05:44:09.075Z,0.90
2023-09-02T05:46:37.105Z,1.37
2023-09-02T05:49:05.752Z,0.80
2023-09-02T05:51:33.827Z,0.50
2023-09-02T05:54:01.806Z,0.87
2023-09-02T05:56:29.853Z,0.80
2023-09-02T05:58:59.313Z,0.57
2023-09-02T06:01:27.485Z,0.60
2023-09-02T06:03:55.637Z,0.67
2023-09-02T06:06:24.058Z,0.83
2023-09-02T06:08:54.417Z,0.90
2023-09-02T06:11:22.491Z,1.00
2023-09-02T06:13:50.668Z,0.87
2023-09-02T06:16:20.052Z,1.10
2023-09-02T06:18:48.108Z,0.70
2023-09-02T06:21:16.448Z,0.60
2023-09-02T06:23:45.641Z,1.00
2023-09-02T06:26:14.449Z,0.70
2023-09-02T06:28:43.086Z,0.40
2023-09-02T06:31:13.283Z,1.27
2023-09-02T06:33:42.910Z,0.60
2023-09-02T06:36:12.264Z,0.63
2023-09-02T06:38:40.693Z,0.63
2023-09-02T06:41:12.982Z,0.40
2023-09-02T06:43:41.377Z,0.63
2023-09-02T06:46:11.806Z,1.07
2023-09-02T06:48:39.957Z,0.83
2023-09-02T06:51:09.527Z,0.70
2023-09-02T06:53:37.761Z,0.67
2023-09-02T06:56:08.613Z,0.87
2023-09-02T06:58:37.659Z,1.03
2023-09-02T07:01:06.045Z,0.60
2023-09-02T07:03:34.452Z,0.43
2023-09-02T07:06:07.680Z,0.50
2023-09-02T07:08:37.259Z,0.43
2023-09-02T07:11:06.769Z,0.37
2023-09-02T07:13:34.902Z,0.40
2023-09-02T07:16:03.859Z,0.70
2023-09-02T07:18:32.136Z,0.63
2023-09-02T07:21:01.392Z,0.30
2023-09-02T07:23:30.474Z,0.50
2023-09-02T07:26:01.603Z,0.40
2023-09-02T07:28:30.032Z,0.67
2023-09-02T07:31:00.186Z,0.97
2023-09-02T07:33:28.399Z,0.63
2023-09-02T07:35:58.398Z,0.70
2023-09-02T07:38:26.980Z,0.50
2023-09-02T07:40:55.175Z,1.57
2023-09-02T07:43:24.626Z,1.60
2023-09-02T07:45:52.782Z,1.10
2023-09-02T07:48:20.912Z,1.00
2023-09-02T07:50:49.041Z,0.90
2023-09-02T07:53:17.408Z,0.63
2023-09-02T07:55:45.820Z,0.50
2023-09-02T07:58:14.108Z,0.60
2023-09-02T08:00:43.610Z,0.50
2023-09-02T08:03:11.982Z,0.50
2023-09-02T08:05:41.432Z,0.50
2023-09-02T08:08:09.862Z,0.43
2023-09-02T08:10:40.417Z,0.57
2023-09-02T08:13:08.920Z,0.70
2023-09-02T08:15:39.120Z,0.60
2023-09-02T08:18:08.764Z,0.60
2023-09-02T08:20:37.614Z,0.43
2023-09-02T08:23:06.021Z,0.60
2023-09-02T08:25:34.195Z,0.37
2023-09-02T08:28:02.272Z,0.40
2023-09-02T08:30:30.626Z,0.60
2023-09-02T08:32:58.797Z,0.80
2023-09-02T08:35:28.380Z,0.60
2023-09-02T08:37:56.393Z,0.50
2023-09-02T08:40:24.516Z,0.50
2023-09-02T08:42:53.065Z,0.40
2023-09-02T08:45:23.528Z,0.80
2023-09-02T08:48:01.834Z,0.70
2023-09-02T08:50:42.028Z,0.60
2023-09-02T08:53:13.029Z,0.67
2023-09-02T08:55:43.468Z,0.40
2023-09-02T08:58:13.543Z,0.60
2023-09-02T09:00:46.870Z,0.80
2023-09-02T09:03:17.571Z,0.70
2023-09-02T09:05:48.246Z,0.80
2023-09-02T09:08:17.044Z,0.47
2023-09-02T09:10:46.053Z,0.43
2023-09-02T09:13:16.469Z,0.60
2023-09-02T09:15:46.009Z,1.30
2023-09-02T09:18:14.509Z,1.13
2023-09-02T09:20:42.976Z,0.70
2023-09-02T09:23:12.491Z,0.90
2023-09-02T09:25:40.551Z,0.80
2023-09-02T09:28:09.465Z,0.90
2023-09-02T09:30:37.809Z,0.60
2023-09-02T09:33:07.087Z,0.83
2023-09-02T09:35:35.833Z,0.70
2023-09-02T09:38:05.212Z,0.70
2023-09-02T09:40:36.415Z,0.50
2023-09-02T09:43:16.219Z,0.50
2023-09-02T09:45:51.570Z,0.60
2023-09-02T09:48:20.080Z,0.60
2023-09-02T09:50:48.384Z,0.60
2023-09-02T09:53:17.122Z,0.53
2023-09-02T09:55:47.289Z,0.80
2023-09-02T09:58:24.535Z,0.60
2023-09-02T10:00:53.562Z,0.60
2023-09-02T10:03:31.743Z,0.60
2023-09-02T10:06:03.675Z,0.80
2023-09-02T10:08:51.047Z,0.53
2023-09-02T10:11:25.588Z,0.60
2023-09-02T10:13:55.586Z,0.70
2023-09-02T10:16:26.095Z,0.30
2023-09-02T10:18:54.282Z,0.50
2023-09-02T10:21:25.953Z,0.50
2023-09-02T10:24:01.507Z,0.40
2023-09-02T10:26:38.160Z,0.80
2023-09-02T10:29:10.421Z,0.40
2023-09-02T10:31:41.643Z,0.50
2023-09-02T10:34:16.868Z,1.00
2023-09-02T10:36:56.010Z,0.30
2023-09-02T10:39:36.477Z,0.70
2023-09-02T10:42:06.602Z,0.40
2023-09-02T10:44:34.961Z,0.33
2023-09-02T10:47:04.884Z,0.40
2023-09-02T10:49:33.902Z,0.40
2023-09-02T10:52:03.035Z,0.63
2023-09-02T10:55:01.953Z,0.50
2023-09-02T10:57:31.617Z,0.47
2023-09-02T11:00:16.688Z,0.50
2023-09-02T11:02:46.455Z,0.63
2023-09-02T11:05:15.015Z,0.70
2023-09-02T11:07:43.739Z,0.43
2023-09-02T11:10:12.349Z,0.30
2023-09-02T11:13:07.503Z,0.40
2023-09-02T11:15:36.172Z,0.47
2023-09-02T11:18:30.611Z,0.50
2023-09-02T11:20:59.571Z,0.40
2023-09-02T11:23:29.210Z,0.30
2023-09-02T11:26:06.009Z,0.40
2023-09-02T11:28:36.380Z,0.43
2023-09-02T11:31:10.968Z,0.33
2023-09-02T11:33:41.017Z,0.30
2023-09-02T11:36:11.301Z,0.30
2023-09-02T11:38:39.779Z,0.23
2023-09-02T11:41:09.326Z,0.27
2023-09-02T11:43:38.933Z,0.40
2023-09-02T11:46:07.263Z,0.40
2023-09-02T11:48:35.547Z,0.40
2023-09-02T11:51:03.653Z,0.43
2023-09-02T11:53:33.096Z,0.30
2023-09-02T11:56:01.211Z,0.40
2023-09-02T11:58:29.263Z,0.20
2023-09-02T12:00:58.721Z,0.30
2023-09-02T12:03:29.423Z,0.40
2023-09-02T12:06:00.000Z,0.30
2023-09-02T12:08:28.804Z,0.30
2023-09-02T12:10:56.865Z,0.50
2023-09-02T12:13:25.025Z,0.30
2023-09-02T12:15:54.616Z,0.40
2023-09-02T12:18:25.883Z,0.40
2023-09-02T12:20:54.640Z,0.40
2023-09-02T12:23:23.046Z,0.30
2023-09-02T12:26:06.951Z,0.40
2023-09-02T12:28:35.244Z,0.30
2023-09-02T12:31:04.836Z,0.30
2023-09-02T12:33:37.513Z,0.30
2023-09-02T12:36:07.523Z,0.20
2023-09-02T12:38:49.719Z,0.30
2023-09-02T12:41:17.884Z,0.40
2023-09-02T12:43:45.934Z,0.30
2023-09-02T12:46:19.980Z,0.30
2023-09-02T12:48:49.625Z,0.20
2023-09-02T12:51:29.184Z,0.30
2023-09-02T12:53:57.841Z,0.30
2023-09-02T12:56:25.947Z,0.30
2023-09-02T12:58:54.006Z,0.50
2023-09-02T13:01:22.363Z,0.20
2023-09-02T13:03:51.896Z,0.30
2023-09-02T13:06:20.118Z,0.40
2023-09-02T13:08:48.545Z,0.50
2023-09-02T13:11:17.456Z,0.50
2023-09-02T13:13:45.603Z,0.40
2023-09-02T13:16:13.828Z,0.50
2023-09-02T13:18:42.905Z,0.30
2023-09-02T13:21:12.977Z,0.30
2023-09-02T13:23:41.408Z,0.50
2023-09-02T13:26:14.860Z,0.40
2023-09-02T13:28:42.973Z,0.40
2023-09-02T13:31:11.131Z,0.40
2023-09-02T13:33:43.247Z,0.30
2023-09-02T13:36:13.981Z,0.30
2023-09-02T13:38:42.443Z,0.30
2023-09-02T13:41:11.861Z,0.30
2023-09-02T13:43:40.811Z,0.30
2023-09-02T13:46:10.987Z,0.60
2023-09-02T13:48:39.684Z,0.30
2023-09-02T13:51:08.000Z,0.50
2023-09-02T13:53:39.231Z,0.30
2023-09-02T13:56:07.353Z,0.30
2023-09-02T13:58:37.530Z,0.33
2023-09-02T14:01:06.086Z,0.43
2023-09-02T14:03:34.667Z,0.30
2023-09-02T14:06:05.374Z,0.40
2023-09-02T14:08:39.674Z,0.20
2023-09-02T14:11:08.594Z,0.50
2023-09-02T14:13:39.075Z,0.33
2023-09-02T14:16:08.113Z,0.50
2023-09-02T14:18:36.357Z,0.40
2023-09-02T14:21:04.804Z,0.40
2023-09-02T14:23:33.916Z,0.40
2023-09-02T14:26:03.862Z,0.30
2023-09-02T14:28:32.622Z,0.37
2023-09-02T14:31:00.696Z,0.40
2023-09-02T14:33:28.828Z,0.40
2023-09-02T14:35:58.451Z,0.30
2023-09-02T14:38:27.103Z,0.30
2023-09-02T14:40:55.199Z,0.30
2023-09-02T14:43:24.734Z,0.40
2023-09-02T14:45:52.841Z,0.30
2023-09-02T14:48:22.165Z,0.20
2023-09-02T14:50:50.189Z,0.30
2023-09-02T14:53:18.566Z,0.30
2023-09-02T14:55:50.781Z,0.33
2023-09-02T14:58:19.111Z,0.33
2023-09-02T15:00:49.101Z,0.20
2023-09-02T15:03:26.944Z,0.23
2023-09-02T15:05:57.783Z,0.20
2023-09-02T15:08:26.086Z,0.30
2023-09-02T15:10:54.796Z,0.20
2023-09-02T15:13:23.121Z,0.30
2023-09-02T15:15:52.596Z,0.47
2023-09-02T15:18:24.750Z,0.37
2023-09-02T15:20:53.048Z,0.30
2023-09-02T15:23:21.746Z,0.40
2023-09-02T15:25:51.797Z,0.20
2023-09-02T15:28:20.139Z,0.40
2023-09-02T15:30:48.322Z,0.30
2023-09-02T15:33:19.659Z,0.40
2023-09-02T15:35:47.932Z,0.30
2023-09-02T15:38:19.038Z,0.30
2023-09-02T15:40:47.708Z,0.30
2023-09-02T15:43:15.805Z,0.33
2023-09-02T15:45:43.894Z,0.30
2023-09-02T15:48:12.039Z,0.50
2023-09-02T15:50:41.542Z,0.40
2023-09-02T15:53:09.648Z,0.30
2023-09-02T15:55:37.680Z,0.30
2023-09-02T15:58:05.930Z,0.30
2023-09-02T16:00:34.208Z,0.40
2023-09-02T16:03:04.204Z,0.37
2023-09-02T16:05:32.739Z,0.40
2023-09-02T16:08:04.174Z,0.37
2023-09-02T16:10:33.883Z,0.33
2023-09-02T16:13:01.947Z,0.30
2023-09-02T16:15:30.101Z,0.70
2023-09-02T16:17:58.218Z,0.43
2023-09-02T16:20:26.255Z,0.50
2023-09-02T16:22:54.280Z,0.60
2023-09-02T16:25:23.815Z,0.60
2023-09-02T16:27:53.461Z,0.40
2023-09-02T16:30:21.585Z,0.60
2023-09-02T16:32:50.350Z,0.50
2023-09-02T16:35:20.258Z,0.40
2023-09-02T16:37:48.873Z,0.30
2023-09-02T16:40:18.546Z,0.50
2023-09-02T16:42:49.977Z,0.50
2023-09-02T16:45:18.043Z,0.50
2023-09-02T16:47:47.450Z,0.30
2023-09-02T16:50:16.571Z,0.47
2023-09-02T16:52:46.764Z,0.80
2023-09-02T16:55:17.839Z,1.10
2023-09-02T16:57:49.033Z,3.03
2023-09-02T17:00:18.594Z,2.10
2023-09-02T17:02:48.259Z,0.67
2023-09-02T17:05:18.296Z,0.57
2023-09-02T17:07:47.189Z,0.30
2023-09-02T17:10:18.205Z,0.50
2023-09-02T17:12:47.615Z,0.73
2023-09-02T17:15:16.816Z,1.40
2023-09-02T17:17:50.152Z,1.90
2023-09-02T17:20:25.856Z,1.47
2023-09-02T17:22:54.015Z,1.53
2023-09-02T17:25:23.060Z,1.07
2023-09-02T17:27:55.305Z,0.90
2023-09-02T17:30:23.911Z,0.37
2023-09-02T17:32:52.000Z,0.50
2023-09-02T17:35:20.847Z,0.50
2023-09-02T17:37:49.199Z,0.40
2023-09-02T17:40:17.249Z,0.50
2023-09-02T17:42:46.010Z,0.50
2023-09-02T17:45:16.491Z,0.40
2023-09-02T17:47:45.888Z,0.60
2023-09-02T17:50:16.163Z,0.50
2023-09-02T17:52:45.145Z,0.60
2023-09-02T17:55:13.404Z,0.63
2023-09-02T17:57:41.515Z,0.50
2023-09-02T18:00:11.381Z,0.50
2023-09-02T18:02:41.044Z,0.50
2023-09-02T18:05:09.250Z,0.43
2023-09-02T18:07:38.560Z,0.50
2023-09-02T18:10:09.400Z,0.43
2023-09-02T18:12:37.790Z,0.43
2023-09-02T18:15:06.886Z,0.40
2023-09-02T18:17:35.082Z,0.30
2023-09-02T18:20:05.638Z,0.67
2023-09-02T18:22:33.826Z,0.80
2023-09-02T18:25:03.239Z,0.93
2023-09-02T18:27:31.413Z,0.97
2023-09-02T18:29:59.620Z,1.10
2023-09-02T18:32:27.731Z,0.60
2023-09-02T18:34:55.894Z,0.60
2023-09-02T18:37:25.514Z,0.97
2023-09-02T18:39:53.684Z,0.63
2023-09-02T18:42:21.739Z,1.90
2023-09-02T18:44:50.046Z,0.93
2023-09-02T18:47:18.103Z,2.70
2023-09-02T18:49:46.178Z,0.90
2023-09-02T18:52:14.484Z,0.80
2023-09-02T18:54:43.891Z,0.87
2023-09-02T18:57:12.948Z,0.63
2023-09-02T18:59:41.083Z,1.00
2023-09-02T19:02:09.148Z,1.00
2023-09-02T19:04:37.350Z,0.90
2023-09-02T19:07:05.930Z,0.80
2023-09-02T19:09:34.985Z,1.47
2023-09-02T19:12:04.716Z,0.87
2023-09-02T19:14:32.808Z,1.20
2023-09-02T19:17:00.873Z,0.87
2023-09-02T19:19:29.093Z,0.70
2023-09-02T19:21:57.203Z,1.00
2023-09-02T19:24:25.352Z,0.97
2023-09-02T19:26:53.541Z,0.93
2023-09-02T19:29:22.985Z,0.83
2023-09-02T19:31:51.131Z,0.90
2023-09-02T19:34:20.457Z,0.70
2023-09-02T19:36:49.557Z,1.10
2023-09-02T19:39:19.045Z,0.87
2023-09-02T19:41:49.215Z,0.70
2023-09-02T19:44:17.637Z,1.00
2023-09-02T19:46:48.180Z,1.00
2023-09-02T19:49:23.432Z,0.77
2023-09-02T19:51:51.965Z,0.80
2023-09-02T19:54:20.128Z,0.80
2023-09-02T19:56:48.170Z,0.87
2023-09-02T19:59:16.265Z,1.20
2023-09-02T20:01:44.298Z,0.93
2023-09-02T20:04:13.856Z,0.70
2023-09-02T20:06:41.999Z,0.70
2023-09-02T20:09:11.235Z,0.93
2023-09-02T20:11:39.492Z,0.80
2023-09-02T20:14:07.637Z,1.00
2023-09-02T20:16:36.340Z,0.80
2023-09-02T20:19:04.695Z,0.73
2023-09-02T20:21:34.105Z,1.00
2023-09-02T20:24:02.547Z,0.90
2023-09-02T20:26:30.636Z,1.00
2023-09-02T20:28:58.768Z,0.60
2023-09-02T20:31:26.995Z,0.90
2023-09-02T20:33:57.617Z,0.63
2023-09-02T20:36:26.048Z,0.83
2023-09-02T20:38:56.157Z,0.80
2023-09-02T20:41:24.453Z,1.10
2023-09-02T20:43:54.107Z,1.00
2023-09-02T20:46:22.275Z,0.70
2023-09-02T20:48:50.443Z,0.70
2023-09-02T20:51:18.809Z,0.60
2023-09-02T20:53:47.931Z,0.70
2023-09-02T20:56:17.422Z,1.07
2023-09-02T20:58:45.594Z,1.03
2023-09-02T21:01:14.034Z,0.97
2023-09-02T21:03:42.345Z,0.63
2023-09-02T21:06:11.965Z,0.80
2023-09-02T21:08:40.575Z,0.73
2023-09-02T21:11:09.876Z,0.90
2023-09-02T21:13:39.881Z,1.10
2023-09-02T21:16:59.887Z,0.90
2023-09-02T21:19:48.254Z,0.70
2023-09-02T21:22:29.692Z,1.20
2023-09-02T21:25:04.161Z,1.43
2023-09-02T21:27:32.441Z,0.83
2023-09-02T21:30:02.305Z,0.70
2023-09-02T21:32:30.434Z,1.07
2023-09-02T21:34:58.786Z,0.83
2023-09-02T21:37:26.890Z,1.20
2023-09-02T21:39:55.056Z,0.93
2023-09-02T21:42:23.277Z,0.67
2023-09-02T21:44:53.383Z,1.10
2023-09-02T21:47:23.412Z,1.13
2023-09-02T21:49:52.376Z,0.93
2023-09-02T21:52:23.876Z,1.23
2023-09-02T21:54:52.601Z,0.50
2023-09-02T21:57:20.632Z,0.77
2023-09-02T21:59:48.658Z,0.77
2023-09-02T22:02:17.035Z,0.90
2023-09-02T22:04:46.450Z,1.07
2023-09-02T22:07:14.503Z,1.07
2023-09-02T22:09:42.705Z,0.90
2023-09-02T22:12:10.821Z,1.07
2023-09-02T22:14:38.939Z,0.83
2023-09-02T22:17:07.091Z,1.17
2023-09-02T22:19:35.345Z,0.60
2023-09-02T22:22:04.987Z,0.93
2023-09-02T22:24:33.140Z,0.93
2023-09-02T22:27:01.429Z,0.83
2023-09-02T22:29:29.579Z,1.23
2023-09-02T22:31:57.723Z,0.60
2023-09-02T22:34:25.932Z,0.80
2023-09-02T22:36:54.084Z,0.60
2023-09-02T22:39:23.734Z,0.80
2023-09-02T22:41:51.939Z,0.67
2023-09-02T22:44:20.935Z,1.00
2023-09-02T22:46:48.993Z,0.70
2023-09-02T22:49:26.358Z,0.80
2023-09-02T22:51:54.636Z,0.60
2023-09-02T22:54:24.175Z,0.90
2023-09-02T22:56:52.247Z,1.27
2023-09-02T22:59:20.454Z,0.70
2023-09-02T23:01:48.563Z,0.80
2023-09-02T23:04:16.712Z,1.30
2023-09-02T23:06:44.946Z,0.87
2023-09-02T23:09:14.112Z,0.70
2023-09-02T23:11:43.569Z,0.80
2023-09-02T23:14:11.773Z,0.70
2023-09-02T23:16:41.682Z,0.90
2023-09-02T23:19:09.955Z,1.03
2023-09-02T23:21:38.459Z,0.80
2023-09-02T23:24:07.444Z,0.80
2023-09-02T23:26:35.582Z,0.80
2023-09-02T23:29:05.108Z,0.77
2023-09-02T23:31:33.195Z,0.63
2023-09-02T23:34:01.344Z,0.50
2023-09-02T23:36:30.585Z,0.70
2023-09-02T23:38:58.668Z,1.03
2023-09-02T23:41:26.978Z,0.80
2023-09-02T23:43:55.079Z,0.90
2023-09-02T23:46:25.028Z,0.70
2023-09-02T23:48:53.183Z,0.87
2023-09-02T23:51:21.317Z,0.60
2023-09-02T23:53:49.445Z,1.30
2023-09-02T23:56:18.126Z,0.80
2023-09-02T23:58:46.372Z,0.80
